createdAt,value
2023-02-03T00:01:53.164Z,1.25
2023-02-03T00:04:20.029Z,0.60
2023-02-03T00:06:47.499Z,0.73
2023-02-03T00:09:15.685Z,0.75
2023-02-03T00:11:42.450Z,0.70
2023-02-03T00:14:09.107Z,2.05
2023-02-03T00:16:36.080Z,1.52
2023-02-03T00:19:02.887Z,1.20
2023-02-03T00:21:29.686Z,0.75
2023-02-03T00:23:56.671Z,1.52
2023-02-03T00:26:26.087Z,0.88
2023-02-03T00:28:52.882Z,0.95
2023-02-03T00:31:22.556Z,1.67
2023-02-03T00:33:54.673Z,1.70
2023-02-03T00:36:21.315Z,2.00
2023-02-03T00:38:50.168Z,0.90
2023-02-03T00:41:17.494Z,1.48
2023-02-03T00:43:47.594Z,1.27
2023-02-03T00:46:14.455Z,1.35
2023-02-03T00:48:41.121Z,1.85
2023-02-03T00:51:08.180Z,1.73
2023-02-03T00:53:34.755Z,1.63
2023-02-03T00:56:01.432Z,1.83
2023-02-03T00:58:28.060Z,2.13
2023-02-03T01:00:57.044Z,2.28
2023-02-03T01:03:23.874Z,3.40
2023-02-03T01:05:50.570Z,1.05
2023-02-03T01:08:17.248Z,1.08
2023-02-03T01:10:43.808Z,1.20
2023-02-03T01:13:10.524Z,1.42
2023-02-03T01:15:37.283Z,1.02
2023-02-03T01:18:04.259Z,0.88
2023-02-03T01:20:30.907Z,0.80
2023-02-03T01:22:57.704Z,1.50
2023-02-03T01:25:27.712Z,1.30
2023-02-03T01:27:54.344Z,2.10
2023-02-03T01:30:21.116Z,0.50
2023-02-03T01:32:47.807Z,1.55
2023-02-03T01:35:14.583Z,0.73
2023-02-03T01:37:41.345Z,0.30
2023-02-03T01:40:08.707Z,0.40
2023-02-03T01:42:35.398Z,1.00
2023-02-03T01:45:02.188Z,0.30
2023-02-03T01:47:42.996Z,0.40
2023-02-03T01:50:20.985Z,0.40
2023-02-03T01:52:54.401Z,0.43
2023-02-03T01:55:25.653Z,0.50
2023-02-03T01:58:10.037Z,0.38
2023-02-03T02:00:36.659Z,0.30
2023-02-03T02:03:06.177Z,0.40
2023-02-03T02:05:45.141Z,0.30
2023-02-03T02:08:13.902Z,0.30
2023-02-03T02:10:41.307Z,1.13
2023-02-03T02:13:07.934Z,0.40
2023-02-03T02:16:08.748Z,0.90
2023-02-03T02:19:07.664Z,0.30
2023-02-03T02:22:01.967Z,0.52
2023-02-03T02:24:28.594Z,0.43
2023-02-03T02:27:32.715Z,0.40
2023-02-03T02:30:47.543Z,0.50
2023-02-03T02:33:40.054Z,0.80
2023-02-03T02:36:23.509Z,0.55
2023-02-03T02:39:18.642Z,0.60
2023-02-03T02:41:48.743Z,1.38
2023-02-03T02:44:25.999Z,0.73
2023-02-03T02:47:00.594Z,0.50
2023-02-03T02:49:36.192Z,0.93
2023-02-03T02:52:06.168Z,0.60
2023-02-03T02:54:35.895Z,0.73
2023-02-03T02:57:05.547Z,0.50
2023-02-03T02:59:32.147Z,3.33
2023-02-03T03:01:58.787Z,1.95
2023-02-03T03:04:29.404Z,1.38
2023-02-03T03:07:09.511Z,0.80
2023-02-03T03:09:52.676Z,0.90
2023-02-03T03:12:31.403Z,0.73
2023-02-03T03:15:03.975Z,0.70
2023-02-03T03:17:35.423Z,0.40
2023-02-03T03:20:09.280Z,1.42
2023-02-03T03:22:42.887Z,0.60
2023-02-03T03:25:21.451Z,0.40
2023-02-03T03:27:58.738Z,0.70
2023-02-03T03:30:37.065Z,0.52
2023-02-03T03:33:05.832Z,0.30
2023-02-03T03:35:49.672Z,1.75
2023-02-03T03:38:33.881Z,0.55
2023-02-03T03:41:16.800Z,0.65
2023-02-03T03:43:45.459Z,0.40
2023-02-03T03:46:26.067Z,0.68
2023-02-03T03:49:08.776Z,0.30
2023-02-03T03:51:42.027Z,0.75
2023-02-03T03:54:12.971Z,0.30
2023-02-03T03:57:03.424Z,0.30
2023-02-03T03:59:34.302Z,1.00
2023-02-03T04:02:05.115Z,2.03
2023-02-03T04:04:35.431Z,0.30
2023-02-03T04:07:02.208Z,1.10
2023-02-03T04:09:28.879Z,0.40
2023-02-03T04:12:01.602Z,1.58
2023-02-03T04:14:30.710Z,0.77
2023-02-03T04:16:58.856Z,0.80
2023-02-03T04:19:26.303Z,0.40
2023-02-03T04:21:53.613Z,0.50
2023-02-03T04:24:20.201Z,0.60
2023-02-03T04:26:46.923Z,0.90
2023-02-03T04:29:13.819Z,1.40
2023-02-03T04:31:40.485Z,0.77
2023-02-03T04:34:07.209Z,3.42
2023-02-03T04:36:34.391Z,2.28
2023-02-03T04:39:01.096Z,0.73
2023-02-03T04:41:27.842Z,1.33
2023-02-03T04:43:54.572Z,1.27
2023-02-03T04:46:21.273Z,1.35
2023-02-03T04:48:48.197Z,2.15
2023-02-03T04:51:14.908Z,1.55
2023-02-03T04:53:41.581Z,0.90
2023-02-03T04:56:08.337Z,0.85
2023-02-03T04:58:37.120Z,0.50
2023-02-03T05:01:09.117Z,2.05
2023-02-03T05:03:36.371Z,0.70
2023-02-03T05:06:03.871Z,1.20
2023-02-03T05:08:30.758Z,1.10
2023-02-03T05:10:59.170Z,1.55
2023-02-03T05:13:27.847Z,0.75
2023-02-03T05:15:54.480Z,0.82
2023-02-03T05:18:21.125Z,1.25
2023-02-03T05:20:47.789Z,0.95
2023-02-03T05:23:14.605Z,1.20
2023-02-03T05:25:43.141Z,1.17
2023-02-03T05:28:09.831Z,0.70
2023-02-03T05:30:36.852Z,0.73
2023-02-03T05:33:03.808Z,1.95
2023-02-03T05:35:30.613Z,1.60
2023-02-03T05:37:57.210Z,1.20
2023-02-03T05:40:42.151Z,1.95
2023-02-03T05:43:09.067Z,3.90
2023-02-03T05:45:35.752Z,1.30
2023-02-03T05:48:05.781Z,3.10
2023-02-03T05:50:33.437Z,2.28
2023-02-03T05:53:01.169Z,2.97
2023-02-03T05:55:29.077Z,5.55
2023-02-03T05:57:56.513Z,2.20
2023-02-03T06:00:24.051Z,2.70
2023-02-03T06:02:56.092Z,4.47
2023-02-03T06:05:23.968Z,3.67
2023-02-03T06:07:51.314Z,2.75
2023-02-03T06:10:18.675Z,1.90
2023-02-03T06:12:45.675Z,2.13
2023-02-03T06:15:12.756Z,2.28
2023-02-03T06:17:39.583Z,6.82
2023-02-03T06:20:08.893Z,1.75
2023-02-03T06:22:35.848Z,1.10
2023-02-03T06:25:02.453Z,1.35
2023-02-03T06:27:29.350Z,3.33
2023-02-03T06:29:56.292Z,1.00
2023-02-03T06:32:22.946Z,2.47
2023-02-03T06:34:49.575Z,2.08
2023-02-03T06:37:16.520Z,1.85
2023-02-03T06:39:43.186Z,0.85
2023-02-03T06:42:09.993Z,3.80
2023-02-03T06:44:36.608Z,0.70
2023-02-03T06:47:03.353Z,2.90
2023-02-03T06:49:30.744Z,2.65
2023-02-03T06:51:57.822Z,0.77
2023-02-03T06:54:24.567Z,2.30
2023-02-03T06:56:52.337Z,2.13
2023-02-03T06:59:18.977Z,2.95
2023-02-03T07:01:45.982Z,7.70
2023-02-03T07:04:12.609Z,3.22
2023-02-03T07:06:39.286Z,5.40
2023-02-03T07:09:06.576Z,3.50
2023-02-03T07:11:33.256Z,5.97
2023-02-03T07:13:59.917Z,7.82
2023-02-03T07:16:27.814Z,4.80
2023-02-03T07:18:54.678Z,6.90
2023-02-03T07:21:21.321Z,4.32
2023-02-03T07:23:49.039Z,2.00
2023-02-03T07:26:16.076Z,1.25
2023-02-03T07:28:42.783Z,2.35
2023-02-03T07:31:10.651Z,12.10
2023-02-03T07:33:38.034Z,0.93
2023-02-03T07:36:05.599Z,3.85
2023-02-03T07:38:32.480Z,1.05
2023-02-03T07:40:59.126Z,2.58
2023-02-03T07:43:25.925Z,1.60
2023-02-03T07:45:52.555Z,5.30
2023-02-03T07:48:19.154Z,0.77
2023-02-03T07:50:47.547Z,7.20
2023-02-03T07:53:14.249Z,4.88
2023-02-03T07:55:41.044Z,4.18
2023-02-03T07:58:08.018Z,4.45
2023-02-03T08:00:35.356Z,8.35
2023-02-03T08:03:02.521Z,6.60
2023-02-03T08:05:30.443Z,5.03
2023-02-03T08:07:57.824Z,3.00
2023-02-03T08:10:24.765Z,3.03
2023-02-03T08:12:55.910Z,3.95
2023-02-03T08:15:23.191Z,0.60
2023-02-03T08:17:50.311Z,1.25
2023-02-03T08:20:18.066Z,0.60
2023-02-03T08:22:44.802Z,0.30
2023-02-03T08:25:12.319Z,2.50
2023-02-03T08:27:39.549Z,3.08
2023-02-03T08:30:09.019Z,4.00
2023-02-03T08:32:36.290Z,1.40
2023-02-03T08:35:03.314Z,2.05
2023-02-03T08:37:32.590Z,2.22
2023-02-03T08:40:00.335Z,3.50
2023-02-03T08:42:27.262Z,5.35
2023-02-03T08:44:54.068Z,1.52
2023-02-03T08:47:21.159Z,11.98
2023-02-03T08:49:48.051Z,6.72
2023-02-03T08:52:17.423Z,4.88
2023-02-03T08:54:45.680Z,1.33
2023-02-03T08:57:13.267Z,6.30
2023-02-03T08:59:42.636Z,0.52
2023-02-03T09:02:14.380Z,1.23
2023-02-03T09:04:41.137Z,0.98
2023-02-03T09:07:07.929Z,1.30
2023-02-03T09:09:34.694Z,0.73
2023-02-03T09:12:02.561Z,1.75
2023-02-03T09:14:30.396Z,4.15
2023-02-03T09:16:57.243Z,2.03
2023-02-03T09:19:24.123Z,0.70
2023-02-03T09:21:51.053Z,0.47
2023-02-03T09:24:18.880Z,5.82
2023-02-03T09:26:46.713Z,2.38
2023-02-03T09:29:13.445Z,1.50
2023-02-03T09:31:40.201Z,3.80
2023-02-03T09:34:08.188Z,2.05
2023-02-03T09:36:35.167Z,1.23
2023-02-03T09:39:02.542Z,6.50
2023-02-03T09:41:35.348Z,1.77
2023-02-03T09:44:04.996Z,0.68
2023-02-03T09:46:40.413Z,1.02
2023-02-03T09:49:15.143Z,0.63
2023-02-03T09:51:52.690Z,0.70
2023-02-03T09:54:26.682Z,3.15
2023-02-03T09:56:55.856Z,6.75
2023-02-03T09:59:23.113Z,0.82
2023-02-03T10:02:00.130Z,1.80
2023-02-03T10:04:28.112Z,1.48
2023-02-03T10:07:15.863Z,1.63
2023-02-03T10:09:53.865Z,1.65
2023-02-03T10:12:28.468Z,0.32
2023-02-03T10:15:17.314Z,0.95
2023-02-03T10:17:51.440Z,1.02
2023-02-03T10:20:36.370Z,1.38
2023-02-03T10:23:12.297Z,1.85
2023-02-03T10:25:47.646Z,0.30
2023-02-03T10:28:19.579Z,1.40
2023-02-03T10:30:54.403Z,3.28
2023-02-03T10:33:22.304Z,0.30
2023-02-03T10:35:57.474Z,8.93
2023-02-03T10:38:36.452Z,1.27
2023-02-03T10:41:04.452Z,1.90
2023-02-03T10:43:48.369Z,0.80
2023-02-03T10:46:16.621Z,1.55
2023-02-03T10:48:43.619Z,1.20
2023-02-03T10:51:24.222Z,1.67
2023-02-03T10:53:53.889Z,1.38
2023-02-03T10:56:26.641Z,2.40
2023-02-03T10:58:56.745Z,0.60
2023-02-03T11:01:41.509Z,3.92
2023-02-03T11:04:31.774Z,1.45
2023-02-03T11:07:07.474Z,2.25
2023-02-03T11:09:40.272Z,2.05
2023-02-03T11:12:14.441Z,0.50
2023-02-03T11:14:46.389Z,4.10
2023-02-03T11:17:20.654Z,0.75
2023-02-03T11:19:49.203Z,0.90
2023-02-03T11:22:37.131Z,6.22
2023-02-03T11:25:15.886Z,1.95
2023-02-03T11:27:43.369Z,1.15
2023-02-03T11:30:17.663Z,2.13
2023-02-03T11:32:46.824Z,0.82
2023-02-03T11:35:18.955Z,5.03
2023-02-03T11:37:48.003Z,1.58
2023-02-03T11:40:15.113Z,0.77
2023-02-03T11:42:44.577Z,0.73
2023-02-03T11:45:34.250Z,1.95
2023-02-03T11:48:37.076Z,1.10
2023-02-03T11:51:20.827Z,1.85
2023-02-03T11:53:57.710Z,0.75
2023-02-03T11:56:52.604Z,0.98
2023-02-03T11:59:21.059Z,5.28
2023-02-03T12:02:03.229Z,0.20
2023-02-03T12:05:09.558Z,1.33
2023-02-03T12:07:44.289Z,0.30
2023-02-03T12:10:32.756Z,0.28
2023-02-03T12:13:31.513Z,0.55
2023-02-03T12:16:20.261Z,2.22
2023-02-03T12:19:13.333Z,1.75
2023-02-03T12:21:50.375Z,0.45
2023-02-03T12:24:38.265Z,1.55
2023-02-03T12:27:23.524Z,0.93
2023-02-03T12:29:58.577Z,3.55
2023-02-03T12:32:39.632Z,0.20
2023-02-03T12:35:18.834Z,0.40
2023-02-03T12:38:13.007Z,0.25
2023-02-03T12:40:50.162Z,0.20
2023-02-03T12:43:37.985Z,0.35
2023-02-03T12:46:09.969Z,0.80
2023-02-03T12:48:55.924Z,0.20
2023-02-03T12:51:38.951Z,0.20
2023-02-03T12:54:17.400Z,14.00
2023-02-03T12:56:47.436Z,4.20
2023-02-03T12:59:22.475Z,3.22
2023-02-03T13:02:04.124Z,1.42
2023-02-03T13:04:33.867Z,2.30
2023-02-03T13:07:16.955Z,0.50
2023-02-03T13:09:55.792Z,0.63
2023-02-03T13:12:32.469Z,0.38
2023-02-03T13:15:23.326Z,0.30
2023-02-03T13:18:03.982Z,0.73
2023-02-03T13:20:36.061Z,1.30
2023-02-03T13:23:11.163Z,39.13
2023-02-03T13:25:46.929Z,18.70
2023-02-03T13:28:57.316Z,41.05
2023-02-03T13:31:36.049Z,2.00
2023-02-03T13:34:12.336Z,0.55
2023-02-03T13:37:22.725Z,2.25
2023-02-03T13:40:46.382Z,4.45
2023-02-03T13:43:36.022Z,1.33
2023-02-03T13:46:08.872Z,0.45
2023-02-03T13:48:36.028Z,0.60
2023-02-03T13:51:18.900Z,0.60
2023-02-03T13:53:47.819Z,3.00
2023-02-03T13:56:20.429Z,2.65
2023-02-03T13:59:04.357Z,20.75
2023-02-03T14:01:41.652Z,41.72
2023-02-03T14:04:35.147Z,34.17
2023-02-03T14:07:04.728Z,13.48
2023-02-03T14:09:31.616Z,2.58
2023-02-03T14:12:13.700Z,5.55
2023-02-03T14:14:40.421Z,1.52
2023-02-03T14:17:32.913Z,1.13
2023-02-03T14:19:59.711Z,2.50
2023-02-03T14:22:27.666Z,2.15
2023-02-03T14:24:58.078Z,4.93
2023-02-03T14:27:28.565Z,1.15
2023-02-03T14:30:07.423Z,1.83
2023-02-03T14:32:55.535Z,0.90
2023-02-03T14:35:30.282Z,2.85
2023-02-03T14:38:17.299Z,7.50
2023-02-03T14:41:05.619Z,1.30
2023-02-03T14:43:41.382Z,2.40
2023-02-03T14:46:16.988Z,1.23
2023-02-03T14:48:55.664Z,2.17
2023-02-03T14:51:49.636Z,1.48
2023-02-03T14:54:31.945Z,4.30
2023-02-03T14:57:17.309Z,2.67
2023-02-03T15:00:24.617Z,2.58
2023-02-03T15:03:09.800Z,17.30
2023-02-03T15:05:39.282Z,21.83
2023-02-03T15:08:32.188Z,5.93
2023-02-03T15:10:59.230Z,15.30
2023-02-03T15:13:27.608Z,5.35
2023-02-03T15:15:57.644Z,7.13
2023-02-03T15:18:30.878Z,3.55
2023-02-03T15:20:58.008Z,2.22
2023-02-03T15:23:28.872Z,1.58
2023-02-03T15:25:56.654Z,4.00
2023-02-03T15:28:25.664Z,4.63
2023-02-03T15:31:19.556Z,4.95
2023-02-03T15:33:49.979Z,3.53
2023-02-03T15:36:22.422Z,7.88
2023-02-03T15:38:55.821Z,3.92
2023-02-03T15:41:24.990Z,11.57
2023-02-03T15:44:02.579Z,8.25
2023-02-03T15:46:44.906Z,3.28
2023-02-03T15:49:19.367Z,2.17
2023-02-03T15:52:15.050Z,1.10
2023-02-03T15:54:53.547Z,6.43
2023-02-03T15:57:22.593Z,7.15
2023-02-03T15:59:55.487Z,2.17
2023-02-03T16:02:46.283Z,0.75
2023-02-03T16:05:39.496Z,2.13
2023-02-03T16:08:35.011Z,9.48
2023-02-03T16:11:01.996Z,3.88
2023-02-03T16:13:30.788Z,4.40
2023-02-03T16:16:16.157Z,4.70
2023-02-03T16:18:57.978Z,5.47
2023-02-03T16:21:36.596Z,5.63
2023-02-03T16:24:06.130Z,9.65
2023-02-03T16:26:35.237Z,10.65
2023-02-03T16:29:24.013Z,14.23
2023-02-03T16:32:10.157Z,8.52
2023-02-03T16:34:55.672Z,7.82
2023-02-03T16:37:50.682Z,6.18
2023-02-03T16:40:39.600Z,5.45
2023-02-03T16:43:30.682Z,8.70
2023-02-03T16:46:17.531Z,8.82
2023-02-03T16:49:02.779Z,8.48
2023-02-03T16:51:41.400Z,8.75
2023-02-03T16:54:17.389Z,9.70
2023-02-03T16:56:44.329Z,13.80
2023-02-03T16:59:11.957Z,12.63
2023-02-03T17:01:39.171Z,10.95
2023-02-03T17:04:06.028Z,11.45
2023-02-03T17:06:34.133Z,12.70
2023-02-03T17:09:00.745Z,13.32
2023-02-03T17:11:27.462Z,5.43
2023-02-03T17:13:54.245Z,6.53
2023-02-03T17:16:24.474Z,6.45
2023-02-03T17:18:51.606Z,3.53
2023-02-03T17:21:22.257Z,10.27
2023-02-03T17:23:49.595Z,3.38
2023-02-03T17:26:16.741Z,10.55
2023-02-03T17:28:44.145Z,6.88
2023-02-03T17:31:16.715Z,6.65
2023-02-03T17:33:44.017Z,1.60
2023-02-03T17:36:16.400Z,0.88
2023-02-03T17:55:10.920Z,4.22
2023-02-03T17:57:37.973Z,3.58
2023-02-03T18:00:05.493Z,2.17
2023-02-03T18:02:32.195Z,0.40
2023-02-03T18:04:58.808Z,1.08
2023-02-03T18:07:25.752Z,0.60
2023-02-03T18:09:52.326Z,2.63
2023-02-03T18:12:19.315Z,5.30
2023-02-03T18:14:45.970Z,3.42
2023-02-03T18:17:12.765Z,2.42
2023-02-03T18:19:41.198Z,2.85
2023-02-03T18:22:08.506Z,1.48
2023-02-03T18:24:35.256Z,5.80
2023-02-03T18:27:04.143Z,1.55
2023-02-03T18:29:30.693Z,2.67
2023-02-03T18:31:57.314Z,1.08
2023-02-03T18:34:25.197Z,1.83
2023-02-03T18:36:51.916Z,4.75
2023-02-03T18:39:18.769Z,6.00
2023-02-03T18:41:45.697Z,3.30
2023-02-03T18:44:12.436Z,2.03
2023-02-03T18:46:39.046Z,2.50
2023-02-03T18:49:09.388Z,1.70
2023-02-03T18:51:36.304Z,2.67
2023-02-03T18:54:03.618Z,2.03
2023-02-03T18:56:36.409Z,1.65
2023-02-03T18:59:11.199Z,1.80
2023-02-03T19:01:39.076Z,5.95
2023-02-03T19:04:06.473Z,13.30
2023-02-03T19:06:35.510Z,4.18
2023-02-03T19:09:03.172Z,1.40
2023-02-03T19:11:29.933Z,2.08
2023-02-03T19:13:56.848Z,0.82
2023-02-03T19:16:23.597Z,0.82
2023-02-03T19:18:50.224Z,2.70
2023-02-03T19:21:17.816Z,1.00
2023-02-03T19:23:44.596Z,3.63
2023-02-03T19:26:12.185Z,0.52
2023-02-03T19:28:39.916Z,0.40
2023-02-03T19:31:13.505Z,0.60
2023-02-03T19:33:40.122Z,0.52
2023-02-03T19:36:09.036Z,0.20
2023-02-03T19:38:36.023Z,0.50
2023-02-03T19:41:03.372Z,1.02
2023-02-03T19:43:31.403Z,0.95
2023-02-03T19:45:58.589Z,0.85
2023-02-03T19:48:25.527Z,0.40
2023-02-03T19:50:52.221Z,1.40
2023-02-03T19:53:18.924Z,1.00
2023-02-03T19:55:46.594Z,0.63
2023-02-03T19:58:14.429Z,1.13
2023-02-03T20:00:41.578Z,0.30
2023-02-03T20:03:08.274Z,0.50
2023-02-03T20:05:36.130Z,0.43
2023-02-03T20:08:03.545Z,0.85
2023-02-03T20:10:31.247Z,1.85
2023-02-03T20:12:58.427Z,0.50
2023-02-03T20:15:25.721Z,0.60
2023-02-03T20:17:52.296Z,0.35
2023-02-03T20:20:26.832Z,1.67
2023-02-03T20:22:53.567Z,18.00
2023-02-03T20:25:20.316Z,10.35
2023-02-03T20:27:47.280Z,17.17
2023-02-03T20:30:14.036Z,17.30
2023-02-03T20:32:41.072Z,22.63
2023-02-03T20:35:08.192Z,24.70
2023-02-03T20:37:36.330Z,24.67
2023-02-03T20:40:12.579Z,25.70
2023-02-03T20:42:39.259Z,23.85
2023-02-03T20:45:12.665Z,21.77
2023-02-03T20:47:39.268Z,16.95
2023-02-03T20:50:13.327Z,22.42
2023-02-03T20:52:39.914Z,20.75
2023-02-03T20:55:12.217Z,21.75
2023-02-03T20:57:39.153Z,14.40
2023-02-03T21:00:16.034Z,11.93
2023-02-03T21:03:02.248Z,14.20
2023-02-03T21:05:34.185Z,23.33
2023-02-03T21:08:01.128Z,24.05
2023-02-03T21:10:28.535Z,18.95
2023-02-03T21:12:56.160Z,16.13
2023-02-03T21:15:29.258Z,49.83
2023-02-03T21:17:56.020Z,24.27
2023-02-03T21:20:31.396Z,49.83
2023-02-03T21:22:58.783Z,33.40
2023-02-03T21:25:28.775Z,27.13
2023-02-03T21:27:58.253Z,44.00
2023-02-03T21:30:35.126Z,32.00
2023-02-03T21:33:27.936Z,91.15
2023-02-03T21:35:54.725Z,20.10
2023-02-03T21:38:31.189Z,21.02
2023-02-03T21:41:01.464Z,26.17
2023-02-03T21:43:33.144Z,38.70
2023-02-03T21:46:00.348Z,26.20
2023-02-03T21:48:27.010Z,14.98
2023-02-03T21:50:55.946Z,18.65
2023-02-03T21:53:32.930Z,13.68
2023-02-03T21:56:16.760Z,12.68
2023-02-03T21:58:44.505Z,16.40
2023-02-03T22:01:16.492Z,12.27
2023-02-03T22:03:47.708Z,15.52
2023-02-03T22:06:24.292Z,14.40
2023-02-03T22:08:54.080Z,7.55
2023-02-03T22:11:22.593Z,8.35
2023-02-03T22:13:49.575Z,1.65
2023-02-03T22:16:17.573Z,1.25
2023-02-03T22:18:48.457Z,3.75
2023-02-03T22:21:17.120Z,2.72
2023-02-03T22:23:44.524Z,1.05
2023-02-03T22:26:12.421Z,0.90
2023-02-03T22:28:39.858Z,0.70
2023-02-03T22:31:07.851Z,0.50
2023-02-03T22:33:35.515Z,2.70
2023-02-03T22:36:03.420Z,0.50
2023-02-03T22:38:30.852Z,0.60
2023-02-03T22:40:57.501Z,0.60
2023-02-03T22:43:25.004Z,0.85
2023-02-03T22:45:52.093Z,0.70
2023-02-03T22:48:18.972Z,2.05
2023-02-03T22:50:46.040Z,1.25
2023-02-03T22:53:13.278Z,1.15
2023-02-03T22:55:40.511Z,4.97
2023-02-03T22:58:07.928Z,3.60
2023-02-03T23:00:34.781Z,1.88
2023-02-03T23:03:01.567Z,2.45
2023-02-03T23:05:28.410Z,1.88
2023-02-03T23:07:55.592Z,1.90
2023-02-03T23:10:25.847Z,1.95
2023-02-03T23:12:52.847Z,1.38
2023-02-03T23:15:19.606Z,1.83
2023-02-03T23:17:46.297Z,3.15
2023-02-03T23:20:15.113Z,3.00
2023-02-03T23:22:43.091Z,3.30
2023-02-03T23:25:10.463Z,3.28
2023-02-03T23:27:37.390Z,3.47
2023-02-03T23:30:05.961Z,5.20
2023-02-03T23:32:33.874Z,5.63
2023-02-03T23:35:20.029Z,3.90
2023-02-03T23:37:46.929Z,4.70
2023-02-03T23:40:14.338Z,3.95
2023-02-03T23:42:41.011Z,5.38
2023-02-03T23:45:12.111Z,7.65
2023-02-03T23:47:43.391Z,6.25
2023-02-03T23:50:13.160Z,6.80
2023-02-03T23:52:39.857Z,3.60
2023-02-03T23:55:15.464Z,4.35
2023-02-03T23:57:45.261Z,5.43
